Time;durP1;ratioP1;P1;durP2;ratioP2;P2;SDS_P1;SDS_P2;PMS_P1;PMS_P2;Temp;Humidity;BMP_temperature;BMP_pressure;BME280_temperature;BME280_humidity;BME280_pressure;Samples;Min_cycle;Max_cycle;Signal;HPM_P1;HPM_P2
2023/08/22 00:22:47;;;;;;;4.38;1.50;;;21.50;99.90;;;;;;5102500;28;20079;-74
2023/08/22 00:25:33;;;;;;;5.18;1.77;;;21.50;99.90;;;;;;5101592;28;20363;-74
2023/08/22 00:28:19;;;;;;;6.53;1.60;;;21.50;99.90;;;;;;5086947;28;20134;-74
2023/08/22 00:31:05;;;;;;;6.55;1.50;;;21.50;99.90;;;;;;5092879;28;20075;-74
2023/08/22 00:33:51;;;;;;;4.15;1.45;;;21.40;99.90;;;;;;5080721;28;20099;-74
2023/08/22 00:36:37;;;;;;;5.65;1.40;;;21.40;99.90;;;;;;5105230;28;20065;-75
2023/08/22 00:39:24;;;;;;;5.57;2.00;;;21.40;99.90;;;;;;5105417;28;20035;-74
2023/08/22 00:42:10;;;;;;;4.72;1.70;;;21.30;99.90;;;;;;5093823;28;20458;-75
2023/08/22 00:44:57;;;;;;;6.70;1.55;;;21.30;99.90;;;;;;5065900;28;20808;-74
2023/08/22 00:47:43;;;;;;;4.90;1.58;;;21.30;99.90;;;;;;5074424;28;20093;-75
2023/08/22 00:50:29;;;;;;;4.03;1.40;;;21.30;99.90;;;;;;5069333;28;20047;-75
2023/08/22 00:53:15;;;;;;;6.13;1.75;;;21.30;99.90;;;;;;5080065;28;20047;-76
2023/08/22 00:56:01;;;;;;;4.93;1.52;;;21.30;99.90;;;;;;5073556;28;20036;-74
2023/08/22 00:58:46;;;;;;;5.28;1.50;;;21.30;99.90;;;;;;5083720;28;20108;-75
2023/08/22 01:01:33;;;;;;;5.95;1.50;;;21.20;99.90;;;;;;5081624;28;20035;-74
2023/08/22 01:04:20;;;;;;;8.65;1.80;;;21.20;99.90;;;;;;5079367;28;20401;-75
2023/08/22 01:07:19;;;;;;;7.00;1.90;;;21.20;99.90;;;;;;5074642;28;20055;-74
2023/08/22 01:10:12;;;;;;;7.63;1.40;;;21.20;99.90;;;;;;5069197;28;20058;-76
2023/08/22 01:13:03;;;;;;;3.78;1.50;;;21.20;99.90;;;;;;5084752;28;20044;-74
2023/08/22 01:15:50;;;;;;;4.15;1.40;;;21.20;99.90;;;;;;5108886;28;20039;-75
2023/08/22 01:18:35;;;;;;;5.88;1.77;;;21.20;99.90;;;;;;5078277;28;20349;-75
2023/08/22 01:21:22;;;;;;;4.75;1.42;;;21.20;99.90;;;;;;5078234;28;20116;-75
2023/08/22 01:24:07;;;;;;;5.60;1.85;;;21.20;99.90;;;;;;5062500;28;20044;-75
2023/08/22 01:26:54;;;;;;;3.35;1.52;;;21.10;99.90;;;;;;5057205;28;20040;-74
2023/08/22 01:29:44;;;;;;;5.18;1.25;;;21.10;99.90;;;;;;5066581;28;20072;-74
2023/08/22 01:32:30;;;;;;;5.00;1.75;;;21.10;99.90;;;;;;5057828;28;20040;-74
2023/08/22 01:35:17;;;;;;;8.55;1.95;;;21.10;99.90;;;;;;5049074;28;20036;-74
2023/08/22 01:38:03;;;;;;;5.38;1.45;;;21.10;99.90;;;;;;5060427;28;20120;-74
2023/08/22 01:40:49;;;;;;;6.45;1.80;;;21.10;99.90;;;;;;5063372;28;20377;-75
2023/08/22 01:43:36;;;;;;;7.63;1.70;;;21.10;99.90;;;;;;5062063;28;20036;-74
2023/08/22 01:46:22;;;;;;;6.22;1.90;;;21.10;99.90;;;;;;5076993;28;20046;-74
2023/08/22 01:49:08;;;;;;;3.92;1.50;;;21.10;99.90;;;;;;5062957;28;20067;-76
2023/08/22 01:51:55;;;;;;;5.40;1.60;;;21.10;99.90;;;;;;5044046;28;20040;-74
2023/08/22 01:54:43;;;;;;;2.80;1.27;;;21.10;99.90;;;;;;5071610;28;20098;-74
2023/08/22 01:57:28;;;;;;;15.65;3.15;;;21.00;99.90;;;;;;5062767;28;20059;-74
2023/08/22 02:00:15;;;;;;;8.82;1.85;;;21.00;99.90;;;;;;5076056;28;20048;-74
2023/08/22 02:03:00;;;;;;;7.60;1.80;;;21.00;99.90;;;;;;5050275;28;20044;-74
2023/08/22 02:05:47;;;;;;;10.07;1.95;;;21.00;99.90;;;;;;5087197;28;20040;-76
2023/08/22 02:08:34;;;;;;;6.03;1.73;;;20.90;99.90;;;;;;5076208;28;20528;-75
2023/08/22 02:11:20;;;;;;;3.20;1.40;;;20.90;99.90;;;;;;5082871;28;20047;-76
2023/08/22 02:14:06;;;;;;;4.20;1.60;;;20.90;99.90;;;;;;5076294;28;20468;-74
2023/08/22 02:16:52;;;;;;;8.05;1.40;;;20.90;99.90;;;;;;5050669;28;20035;-74
2023/08/22 02:19:38;;;;;;;4.72;1.73;;;21.00;99.90;;;;;;5070668;28;20036;-74
2023/08/22 02:22:24;;;;;;;7.03;2.00;;;20.90;99.90;;;;;;5058265;28;20044;-74
2023/08/22 02:25:11;;;;;;;6.82;1.77;;;20.90;99.90;;;;;;5054835;28;20048;-74
2023/08/22 02:27:57;;;;;;;6.93;1.67;;;20.90;99.90;;;;;;5087994;28;20672;-74
2023/08/22 02:30:43;;;;;;;5.40;1.50;;;20.90;99.90;;;;;;5069329;28;20196;-75
2023/08/22 02:33:29;;;;;;;7.50;1.40;;;20.90;99.90;;;;;;5060002;28;20040;-75
2023/08/22 02:36:15;;;;;;;7.93;1.77;;;20.90;99.90;;;;;;5090066;28;20032;-75
2023/08/22 02:39:01;;;;;;;2.65;1.40;;;20.80;99.90;;;;;;5075394;28;20044;-75
2023/08/22 02:41:47;;;;;;;3.63;1.48;;;20.80;99.90;;;;;;5050211;28;20158;-75
2023/08/22 02:44:33;;;;;;;5.45;1.67;;;20.80;99.90;;;;;;5072037;28;20123;-75
2023/08/22 02:47:19;;;;;;;5.93;1.70;;;20.80;99.90;;;;;;5061654;28;20118;-76
2023/08/22 02:50:06;;;;;;;3.50;1.35;;;20.80;99.90;;;;;;5062081;28;20043;-75
2023/08/22 02:52:52;;;;;;;7.88;1.67;;;20.80;99.90;;;;;;5074780;28;20480;-74
2023/08/22 02:55:38;;;;;;;8.48;1.65;;;20.80;99.90;;;;;;5062021;28;20035;-74
2023/08/22 02:58:24;;;;;;;4.30;1.35;;;20.80;99.90;;;;;;5062245;28;20032;-74
2023/08/22 03:01:10;;;;;;;4.93;1.50;;;20.80;99.90;;;;;;5084207;28;20107;-75
2023/08/22 03:03:56;;;;;;;7.78;1.95;;;20.70;99.90;;;;;;5073959;28;20123;-74
2023/08/22 03:06:42;;;;;;;3.67;1.70;;;20.80;99.90;;;;;;5064078;28;20036;-74
2023/08/22 03:09:29;;;;;;;4.70;1.27;;;20.80;99.90;;;;;;5061153;28;20036;-74
2023/08/22 03:12:15;;;;;;;4.90;1.63;;;20.80;99.90;;;;;;5049972;28;20094;-74
2023/08/22 03:15:02;;;;;;;7.82;1.60;;;20.70;99.90;;;;;;5084585;28;20036;-74
2023/08/22 03:17:48;;;;;;;3.88;1.70;;;20.70;99.90;;;;;;5071641;28;20032;-74
2023/08/22 03:20:34;;;;;;;5.53;1.75;;;20.70;99.90;;;;;;5075844;28;20201;-74
2023/08/22 03:23:21;;;;;;;7.03;1.52;;;20.70;99.90;;;;;;5048845;28;20044;-74
2023/08/22 03:26:10;;;;;;;4.60;1.58;;;20.70;99.90;;;;;;5078737;28;20069;-74
2023/08/22 03:28:56;;;;;;;5.80;1.35;;;20.70;99.90;;;;;;5069559;28;20439;-74
2023/08/22 03:31:42;;;;;;;4.88;1.40;;;20.80;99.90;;;;;;5088042;28;20040;-74
2023/08/22 03:34:28;;;;;;;6.47;1.50;;;20.70;99.90;;;;;;5047921;28;20047;-74
2023/08/22 03:37:14;;;;;;;4.97;1.27;;;20.70;99.90;;;;;;5047747;28;20126;-75
2023/08/22 03:40:01;;;;;;;6.32;1.75;;;20.70;99.90;;;;;;5061101;28;20556;-74
2023/08/22 03:42:47;;;;;;;4.90;1.55;;;20.70;99.90;;;;;;5071835;28;20365;-75
2023/08/22 03:45:33;;;;;;;7.35;1.60;;;20.60;99.90;;;;;;5047672;28;20040;-74
2023/08/22 03:48:19;;;;;;;5.07;1.63;;;20.60;99.90;;;;;;5074953;28;20044;-74
2023/08/22 03:51:06;;;;;;;3.42;1.27;;;20.60;99.90;;;;;;5049754;28;20044;-74
2023/08/22 03:53:53;;;;;;;6.55;1.60;;;20.60;99.90;;;;;;5063450;28;20036;-74
2023/08/22 03:56:40;;;;;;;5.68;1.70;;;20.60;99.90;;;;;;5044393;28;20032;-73
2023/08/22 03:59:26;;;;;;;7.20;1.70;;;20.60;99.90;;;;;;5061424;28;20048;-73
2023/08/22 04:02:12;;;;;;;6.25;1.48;;;20.50;99.90;;;;;;5073798;28;20040;-74
2023/08/22 04:04:59;;;;;;;5.15;2.00;;;20.50;99.90;;;;;;5051052;28;20500;-74
2023/08/22 04:07:45;;;;;;;2.33;1.10;;;20.50;99.90;;;;;;5073438;28;20040;-74
2023/08/22 04:10:31;;;;;;;10.05;1.98;;;20.50;99.90;;;;;;5060967;28;20074;-76
2023/08/22 04:13:18;;;;;;;4.05;1.60;;;20.50;99.90;;;;;;5046331;28;20047;-75
2023/08/22 04:16:04;;;;;;;5.82;1.75;;;20.50;99.90;;;;;;5035853;28;20041;-73
2023/08/22 04:18:50;;;;;;;4.30;1.40;;;20.50;99.90;;;;;;5076763;28;20036;-74
2023/08/22 04:21:36;;;;;;;5.22;1.40;;;20.50;99.90;;;;;;5061917;28;20419;-74
2023/08/22 04:24:22;;;;;;;3.03;1.58;;;20.50;99.90;;;;;;5073436;28;20062;-74
2023/08/22 04:27:08;;;;;;;6.25;2.10;;;20.50;99.90;;;;;;5054297;28;20047;-73
2023/08/22 04:29:54;;;;;;;4.78;1.40;;;20.50;99.90;;;;;;5086122;28;20048;-72
2023/08/22 04:32:40;;;;;;;4.93;1.70;;;20.50;99.90;;;;;;5070343;28;20047;-72
2023/08/22 04:35:26;;;;;;;5.38;1.90;;;20.50;99.90;;;;;;5071620;28;20051;-73
2023/08/22 04:38:12;;;;;;;9.30;2.00;;;20.50;99.90;;;;;;5073566;28;20071;-73
2023/08/22 04:40:58;;;;;;;5.28;1.52;;;20.50;99.90;;;;;;5088839;28;20071;-73
2023/08/22 04:43:44;;;;;;;5.60;1.60;;;20.50;99.90;;;;;;5088679;28;20075;-73
2023/08/22 04:46:30;;;;;;;5.03;1.52;;;20.50;99.90;;;;;;5091432;28;20070;-73
2023/08/22 04:49:16;;;;;;;4.43;1.65;;;20.50;99.90;;;;;;5065143;28;20481;-73
2023/08/22 04:52:02;;;;;;;4.63;1.55;;;20.50;99.90;;;;;;5083201;28;20027;-71
2023/08/22 04:54:48;;;;;;;6.63;1.98;;;20.50;99.90;;;;;;5092702;28;20047;-72
2023/08/22 04:57:34;;;;;;;4.72;1.60;;;20.50;99.90;;;;;;5091198;28;20368;-73
2023/08/22 05:00:20;;;;;;;3.95;1.40;;;20.50;99.90;;;;;;5082475;28;20040;-72
2023/08/22 05:03:06;;;;;;;5.88;1.77;;;20.50;99.90;;;;;;5072115;28;20421;-72
2023/08/22 05:05:52;;;;;;;9.85;1.85;;;20.50;99.90;;;;;;5078641;28;20047;-72
2023/08/22 05:08:38;;;;;;;7.50;1.85;;;20.50;99.90;;;;;;5080150;28;20119;-73
2023/08/22 05:11:23;;;;;;;4.32;1.42;;;20.50;99.90;;;;;;5075027;28;20043;-73
2023/08/22 05:14:11;;;;;;;3.67;1.50;;;20.60;99.90;;;;;;5082865;28;20052;-72
2023/08/22 05:16:58;;;;;;;7.83;1.97;;;20.50;99.90;;;;;;5075829;28;20051;-72
2023/08/22 05:19:43;;;;;;;4.53;1.58;;;20.60;99.90;;;;;;5078129;28;20036;-72
2023/08/22 05:22:29;;;;;;;6.65;1.80;;;20.50;99.90;;;;;;5070482;28;20053;-73
2023/08/22 05:25:15;;;;;;;3.75;1.60;;;20.60;99.90;;;;;;5045581;28;20123;-72
2023/08/22 05:28:01;;;;;;;4.72;1.50;;;20.60;99.90;;;;;;5077538;28;20040;-73
2023/08/22 05:30:47;;;;;;;5.60;1.88;;;20.60;99.90;;;;;;5074327;28;20048;-72
2023/08/22 05:33:33;;;;;;;5.55;1.63;;;20.60;99.90;;;;;;5076955;28;20032;-72
2023/08/22 05:36:19;;;;;;;5.15;1.75;;;20.60;99.90;;;;;;5069996;28;20040;-72
2023/08/22 05:39:06;;;;;;;6.40;1.90;;;20.60;99.90;;;;;;5089293;28;20064;-74
2023/08/22 05:41:52;;;;;;;7.22;2.05;;;20.60;99.90;;;;;;5080861;28;20676;-71
2023/08/22 05:44:38;;;;;;;8.77;1.98;;;20.70;99.90;;;;;;5073379;28;20032;-72
2023/08/22 05:47:24;;;;;;;9.63;1.90;;;20.70;99.90;;;;;;5057304;28;20439;-72
2023/08/22 05:50:11;;;;;;;5.85;1.73;;;20.70;99.90;;;;;;5091419;28;20160;-73
2023/08/22 05:52:57;;;;;;;5.38;1.70;;;20.70;99.90;;;;;;5060361;28;20047;-73
2023/08/22 05:55:43;;;;;;;6.80;1.95;;;20.70;99.90;;;;;;5074448;28;20133;-72
2023/08/22 05:58:29;;;;;;;8.95;1.70;;;20.70;99.90;;;;;;5074483;28;20094;-73
2023/08/22 06:01:15;;;;;;;6.93;1.85;;;20.70;99.90;;;;;;5076654;28;20032;-72
2023/08/22 06:04:01;;;;;;;6.95;1.92;;;20.70;99.90;;;;;;5066078;28;20040;-72
2023/08/22 06:06:47;;;;;;;7.50;1.60;;;20.70;99.90;;;;;;5062519;28;20484;-73
2023/08/22 06:09:33;;;;;;;11.60;2.80;;;20.70;99.90;;;;;;5076834;28;20067;-72
2023/08/22 06:12:19;;;;;;;9.70;1.98;;;20.70;99.90;;;;;;5071252;28;20101;-72
2023/08/22 06:15:05;;;;;;;11.00;2.30;;;20.80;99.90;;;;;;5076880;28;20079;-75
2023/08/22 06:17:51;;;;;;;5.30;2.00;;;20.80;99.90;;;;;;5071068;28;20036;-75
2023/08/22 06:20:38;;;;;;;4.38;2.38;;;20.80;99.90;;;;;;5076721;28;20044;-75
2023/08/22 06:23:24;;;;;;;7.93;2.00;;;20.90;99.90;;;;;;5063661;28;20116;-75
2023/08/22 06:26:10;;;;;;;5.25;2.05;;;20.90;99.90;;;;;;5083581;28;20353;-75
2023/08/22 06:28:57;;;;;;;8.05;2.55;;;20.90;99.90;;;;;;5054299;28;20072;-75
2023/08/22 06:31:43;;;;;;;6.50;1.70;;;20.90;99.90;;;;;;5077964;28;20044;-74
2023/08/22 06:34:30;;;;;;;5.88;1.55;;;20.90;99.90;;;;;;5082372;28;20032;-73
2023/08/22 06:37:16;;;;;;;4.60;1.80;;;20.90;99.90;;;;;;5067244;28;20237;-75
2023/08/22 06:40:04;;;;;;;8.70;1.80;;;20.90;99.90;;;;;;5065344;28;20384;-74
2023/08/22 06:42:50;;;;;;;5.82;1.83;;;20.90;99.90;;;;;;5083587;28;20436;-75
2023/08/22 06:45:36;;;;;;;5.20;1.73;;;20.90;99.90;;;;;;5067421;28;20097;-75
2023/08/22 06:48:22;;;;;;;3.88;2.20;;;21.00;99.90;;;;;;5083235;28;20079;-74
2023/08/22 06:51:08;;;;;;;5.82;1.70;;;20.90;99.90;;;;;;5077287;28;20059;-76
2023/08/22 06:53:54;;;;;;;5.93;2.53;;;21.00;99.90;;;;;;5045443;28;20131;-74
2023/08/22 06:56:40;;;;;;;5.70;1.83;;;21.00;99.90;;;;;;5073874;28;20097;-75
2023/08/22 06:59:26;;;;;;;6.03;2.55;;;21.00;99.90;;;;;;5069624;28;20472;-74
2023/08/22 07:02:12;;;;;;;8.80;2.20;;;21.00;99.90;;;;;;5090142;28;20043;-75
2023/08/22 07:04:58;;;;;;;9.00;2.33;;;21.00;99.90;;;;;;5076495;28;20032;-73
2023/08/22 07:07:44;;;;;;;6.82;1.80;;;21.00;99.90;;;;;;5051983;28;20048;-74
2023/08/22 07:10:30;;;;;;;7.68;2.15;;;21.00;99.90;;;;;;5077385;28;20424;-75
2023/08/22 07:13:16;;;;;;;6.88;1.73;;;21.00;99.90;;;;;;5089515;28;20044;-75
2023/08/22 07:16:02;;;;;;;3.95;1.65;;;21.10;99.90;;;;;;5080747;28;20326;-74
2023/08/22 07:18:48;;;;;;;6.15;1.75;;;21.10;99.90;;;;;;5070334;28;20036;-74
2023/08/22 07:21:34;;;;;;;6.35;1.90;;;21.00;99.90;;;;;;5056427;28;20132;-74
2023/08/22 07:24:20;;;;;;;7.38;1.85;;;21.10;99.90;;;;;;5065105;28;20044;-74
2023/08/22 07:27:09;;;;;;;3.58;1.55;;;21.10;99.90;;;;;;5072010;28;20323;-75
2023/08/22 07:29:55;;;;;;;6.15;1.70;;;21.20;99.90;;;;;;5075210;28;20464;-74
2023/08/22 07:32:41;;;;;;;4.80;1.83;;;21.20;99.90;;;;;;5073937;28;20044;-75
2023/08/22 07:35:29;;;;;;;6.13;1.88;;;21.20;99.90;;;;;;5077243;28;20055;-73
2023/08/22 07:38:15;;;;;;;;;;;21.20;99.90;;;;;;5070462;28;20040;-75
2023/08/22 07:41:01;;;;;;;5.72;1.85;;;21.20;99.90;;;;;;5090413;28;19912;-74
2023/08/22 07:43:47;;;;;;;8.23;1.90;;;21.20;99.90;;;;;;5089526;28;20089;-74
2023/08/22 07:46:33;;;;;;;4.93;1.60;;;21.30;99.90;;;;;;5089811;28;20036;-75
2023/08/22 07:49:19;;;;;;;5.88;1.70;;;21.30;99.90;;;;;;5073387;28;20036;-75
2023/08/22 07:52:05;;;;;;;5.05;1.55;;;21.30;99.90;;;;;;5068342;28;20048;-75
2023/08/22 07:54:51;;;;;;;4.28;1.38;;;21.40;99.90;;;;;;5059228;28;20105;-74
2023/08/22 07:57:37;;;;;;;2.45;1.40;;;21.50;99.90;;;;;;5065464;28;20040;-75
2023/08/22 08:00:23;;;;;;;3.80;1.40;;;21.50;99.90;;;;;;5071198;28;20089;-75
2023/08/22 08:03:09;;;;;;;7.38;1.73;;;21.60;99.90;;;;;;5061205;28;20114;-74
2023/08/22 08:05:55;;;;;;;4.72;1.30;;;21.60;99.90;;;;;;5088511;28;20036;-75
2023/08/22 08:08:41;;;;;;;3.83;1.73;;;21.70;99.90;;;;;;5073738;28;20047;-75
2023/08/22 08:11:31;;;;;;;4.97;1.58;;;21.80;99.90;;;;;;5089593;28;20036;-74
2023/08/22 08:14:16;;;;;;;4.30;1.40;;;21.90;99.90;;;;;;5070075;28;20710;-76
2023/08/22 08:17:03;;;;;;;5.05;1.63;;;21.90;99.90;;;;;;5073927;28;20119;-74
2023/08/22 08:19:48;;;;;;;5.18;1.40;;;21.90;98.90;;;;;;5075934;28;20045;-75
2023/08/22 08:22:34;;;;;;;3.78;1.33;;;22.00;99.60;;;;;;5077549;28;20044;-76
2023/08/22 08:25:20;;;;;;;3.05;1.30;;;22.00;99.40;;;;;;5080591;28;20044;-74
2023/08/22 08:28:06;;;;;;;4.10;1.30;;;22.10;98.80;;;;;;5090532;28;20054;-74
2023/08/22 08:30:52;;;;;;;4.43;1.40;;;22.20;98.20;;;;;;5069878;28;20131;-75
2023/08/22 08:33:38;;;;;;;5.38;1.27;;;22.20;98.40;;;;;;5073204;28;20127;-74
2023/08/22 08:36:24;;;;;;;4.63;1.40;;;22.30;96.70;;;;;;5051920;28;20151;-74
2023/08/22 08:39:10;;;;;;;2.80;1.10;;;22.20;96.40;;;;;;5093502;28;20028;-74
2023/08/22 08:42:06;;;;;;;5.50;1.23;;;22.20;97.30;;;;;;5075563;28;20044;-74
2023/08/22 08:44:52;;;;;;;3.58;1.55;;;22.40;97.60;;;;;;5075917;28;20030;-74
2023/08/22 08:47:38;;;;;;;4.20;1.55;;;22.40;97.60;;;;;;5074477;28;20574;-74
2023/08/22 08:50:23;;;;;;;5.35;1.38;;;22.50;97.50;;;;;;5065225;28;20040;-74
2023/08/22 08:53:10;;;;;;;7.10;1.42;;;22.60;97.70;;;;;;5064041;28;20040;-74
2023/08/22 08:55:56;;;;;;;3.20;1.30;;;22.60;97.90;;;;;;5064272;28;20115;-74
2023/08/22 08:58:42;;;;;;;5.63;1.75;;;22.70;97.20;;;;;;5091180;28;20074;-74
2023/08/22 09:01:28;;;;;;;3.45;1.70;;;22.80;97.70;;;;;;5060401;28;20059;-74
2023/08/22 09:04:14;;;;;;;4.82;1.50;;;22.80;97.40;;;;;;5091032;28;20050;-74
2023/08/22 09:07:00;;;;;;;5.13;1.65;;;22.90;97.00;;;;;;5076606;28;20775;-74
2023/08/22 09:09:46;;;;;;;4.43;1.30;;;22.90;97.00;;;;;;5079177;28;20217;-75
2023/08/22 09:12:36;;;;;;;2.85;1.30;;;22.90;96.40;;;;;;5078668;28;20479;-74
2023/08/22 09:15:22;;;;;;;3.53;1.48;;;23.00;96.40;;;;;;5077544;28;20040;-75
2023/08/22 09:18:12;;;;;;;4.57;1.38;;;23.10;96.30;;;;;;5080642;28;20115;-74
2023/08/22 09:21:04;;;;;;;5.00;1.50;;;23.30;95.60;;;;;;5073635;28;20056;-75
2023/08/22 09:23:50;;;;;;;3.72;1.05;;;23.30;95.00;;;;;;5076820;28;20040;-75
2023/08/22 09:26:39;;;;;;;8.00;1.65;;;23.30;95.60;;;;;;5093133;28;20040;-74
2023/08/22 09:29:29;;;;;;;8.07;1.58;;;23.50;95.50;;;;;;5069543;28;20047;-75
2023/08/22 09:32:15;;;;;;;3.55;1.35;;;23.60;95.30;;;;;;5084466;28;20067;-74
2023/08/22 09:35:01;;;;;;;7.38;1.70;;;23.70;95.00;;;;;;5082810;28;20041;-76
2023/08/22 09:37:47;;;;;;;4.97;1.65;;;23.70;94.40;;;;;;5076419;28;20051;-75
2023/08/22 09:40:33;;;;;;;4.35;1.42;;;23.80;94.40;;;;;;5062649;28;20054;-74
2023/08/22 09:43:19;;;;;;;1.98;1.00;;;23.90;94.50;;;;;;5070638;28;20112;-75
2023/08/22 09:46:05;;;;;;;4.97;1.73;;;24.00;94.90;;;;;;5069972;28;20147;-75
2023/08/22 09:48:51;;;;;;;4.10;1.20;;;24.10;94.80;;;;;;5083784;28;20569;-75
2023/08/22 09:51:37;;;;;;;3.58;1.60;;;24.10;94.70;;;;;;5084471;28;20130;-75
2023/08/22 09:54:23;;;;;;;3.45;1.30;;;24.20;95.70;;;;;;5078547;28;20040;-75
2023/08/22 09:57:09;;;;;;;2.10;0.98;;;24.30;94.70;;;;;;5081472;28;20046;-75
2023/08/22 09:59:55;;;;;;;6.85;1.60;;;24.50;94.90;;;;;;5097114;28;20547;-74
2023/08/22 10:02:41;;;;;;;2.63;1.30;;;24.50;93.50;;;;;;5068487;28;20051;-75
2023/08/22 10:05:27;;;;;;;5.13;1.38;;;24.60;95.20;;;;;;5073209;28;20036;-75
2023/08/22 10:08:13;;;;;;;4.05;1.30;;;24.80;94.80;;;;;;5065441;28;20048;-74
2023/08/22 10:10:59;;;;;;;5.45;1.50;;;24.90;95.00;;;;;;5098091;28;20051;-74
2023/08/22 10:13:45;;;;;;;4.38;1.50;;;25.00;93.10;;;;;;5092983;28;20081;-75
2023/08/22 10:16:31;;;;;;;5.50;1.73;;;25.10;92.50;;;;;;5069764;28;20104;-75
2023/08/22 10:19:19;;;;;;;6.93;2.35;;;25.00;92.80;;;;;;5079129;28;20388;-75
2023/08/22 10:22:07;;;;;;;6.22;1.40;;;25.20;93.60;;;;;;5099856;28;20044;-76
2023/08/22 10:25:06;;;;;;;6.45;2.08;;;25.30;93.40;;;;;;5057193;28;20040;-73
2023/08/22 10:27:53;;;;;;;5.50;1.55;;;25.50;93.00;;;;;;5095380;28;20061;-74
2023/08/22 10:31:15;;;;;;;5.82;1.55;;;25.50;92.50;;;;;;5061727;28;20051;-74
2023/08/22 10:34:02;;;;;;;5.68;1.52;;;25.60;92.80;;;;;;4983768;28;20037;-75
2023/08/22 10:37:01;;;;;;;5.65;1.65;;;25.80;92.80;;;;;;5085083;28;20563;-74
2023/08/22 10:39:48;;;;;;;8.50;1.90;;;25.80;92.10;;;;;;5095499;28;20083;-74
2023/08/22 10:42:34;;;;;;;4.93;1.52;;;26.00;92.40;;;;;;5083741;28;20057;-73
2023/08/22 10:45:20;;;;;;;5.75;1.77;;;26.00;92.20;;;;;;5061354;28;20050;-72
2023/08/22 10:48:11;;;;;;;6.35;2.10;;;26.00;91.70;;;;;;5068029;28;20073;-74
2023/08/22 10:51:06;;;;;;;5.55;1.83;;;26.10;92.70;;;;;;5080827;28;20047;-72
2023/08/22 10:53:55;;;;;;;9.23;2.08;;;26.00;92.50;;;;;;5080620;28;20101;-73
2023/08/22 10:56:41;;;;;;;7.53;2.40;;;25.90;93.50;;;;;;5078492;28;20036;-73
2023/08/22 10:59:27;;;;;;;7.97;2.40;;;25.60;92.50;;;;;;5060481;28;20406;-74
2023/08/22 11:02:14;;;;;;;6.65;2.50;;;25.60;93.40;;;;;;5061127;28;20067;-73
2023/08/22 11:05:02;;;;;;;6.95;2.00;;;25.70;93.60;;;;;;5076620;28;20043;-72
2023/08/22 11:07:49;;;;;;;10.25;2.33;;;25.70;93.20;;;;;;5052990;28;20046;-73
2023/08/22 11:10:36;;;;;;;10.52;3.25;;;25.70;93.50;;;;;;5061004;28;20640;-72
2023/08/22 11:13:34;;;;;;;8.63;2.50;;;25.70;93.80;;;;;;5079153;28;20070;-73
2023/08/22 11:16:20;;;;;;;8.43;2.70;;;25.70;94.10;;;;;;5060920;28;20143;-74
2023/08/22 11:19:06;;;;;;;9.73;2.78;;;25.80;94.40;;;;;;5080679;28;20104;-72
2023/08/22 11:21:53;;;;;;;6.85;2.45;;;25.80;94.50;;;;;;5059775;28;20047;-72
2023/08/22 11:24:45;;;;;;;8.48;2.55;;;26.00;94.90;;;;;;5068705;28;20075;-72
2023/08/22 11:27:32;;;;;;;8.40;2.20;;;26.00;94.50;;;;;;5047024;28;20119;-74
2023/08/22 11:30:18;;;;;;;7.32;2.42;;;25.90;94.70;;;;;;5101457;28;20054;-74
2023/08/22 11:33:04;;;;;;;6.53;2.05;;;25.80;94.40;;;;;;5082305;28;20640;-75
2023/08/22 11:35:51;;;;;;;5.45;2.08;;;25.70;94.50;;;;;;5061578;28;20094;-75
2023/08/22 11:38:37;;;;;;;5.40;2.17;;;25.70;94.70;;;;;;5062532;28;20044;-74
2023/08/22 11:41:23;;;;;;;8.18;1.90;;;25.50;94.60;;;;;;5096480;28;20418;-74
2023/08/22 11:44:12;;;;;;;8.50;2.25;;;25.40;94.60;;;;;;5081462;28;20043;-73
2023/08/22 11:47:00;;;;;;;7.68;1.80;;;25.50;94.40;;;;;;5067933;28;20150;-74
2023/08/22 11:49:49;;;;;;;5.85;2.28;;;25.50;94.30;;;;;;5096330;28;20047;-74
2023/08/22 11:52:35;;;;;;;7.63;2.03;;;25.50;94.50;;;;;;5075144;28;20127;-74
2023/08/22 11:55:26;;;;;;;4.35;2.22;;;25.50;94.10;;;;;;5073846;28;20551;-74
2023/08/22 11:58:15;;;;;;;9.93;1.95;;;25.60;93.80;;;;;;5100630;28;20511;-74
2023/08/22 12:01:01;;;;;;;7.03;2.15;;;25.60;93.70;;;;;;5084555;28;20097;-74
2023/08/22 12:03:47;;;;;;;10.23;1.90;;;25.80;93.70;;;;;;5072612;28;20090;-74
2023/08/22 12:06:33;;;;;;;8.77;2.35;;;25.80;94.30;;;;;;5113148;28;20483;-75
2023/08/22 12:09:19;;;;;;;11.38;2.80;;;26.00;93.50;;;;;;5086197;28;20479;-75
2023/08/22 12:12:11;;;;;;;5.38;2.22;;;25.80;93.70;;;;;;5099750;28;20039;-74
2023/08/22 12:14:59;;;;;;;5.28;2.22;;;25.80;93.90;;;;;;5065055;28;20539;-75
2023/08/22 12:17:45;;;;;;;7.95;2.22;;;25.60;93.90;;;;;;5090806;28;20036;-75
2023/08/22 12:20:31;;;;;;;6.32;1.70;;;25.50;93.80;;;;;;5084461;28;20155;-74
2023/08/22 12:23:17;;;;;;;6.30;2.40;;;25.40;94.30;;;;;;5099431;28;20079;-75
2023/08/22 12:26:03;;;;;;;6.18;2.22;;;25.20;94.20;;;;;;5082384;28;20101;-74
2023/08/22 12:28:49;;;;;;;10.07;2.30;;;25.10;94.00;;;;;;5075587;28;20340;-75
2023/08/22 12:31:35;;;;;;;5.13;1.90;;;24.80;93.70;;;;;;5085813;28;20131;-74
2023/08/22 12:34:22;;;;;;;8.57;2.20;;;24.80;93.60;;;;;;5057400;28;20107;-74
2023/08/22 12:37:08;;;;;;;7.82;2.45;;;24.80;94.20;;;;;;5098092;28;20039;-74
2023/08/22 12:39:54;;;;;;;3.47;2.10;;;24.70;94.10;;;;;;5113708;28;20050;-75
2023/08/22 12:42:41;;;;;;;9.20;2.15;;;24.70;93.70;;;;;;5098936;28;20553;-75
2023/08/22 12:45:27;;;;;;;9.35;2.30;;;24.80;94.20;;;;;;5083730;28;20051;-74
2023/08/22 12:48:13;;;;;;;4.85;2.03;;;25.20;93.90;;;;;;5084100;28;20043;-75
2023/08/22 12:50:59;;;;;;;6.65;2.13;;;25.40;93.10;;;;;;5080979;28;20111;-73
2023/08/22 12:53:45;;;;;;;6.15;2.03;;;25.50;93.00;;;;;;5094690;28;20689;-73
2023/08/22 12:56:31;;;;;;;8.43;2.33;;;25.50;93.40;;;;;;5068265;28;20040;-73
2023/08/22 12:59:17;;;;;;;5.03;1.70;;;25.60;93.40;;;;;;5108709;28;20035;-73
2023/08/22 13:02:03;;;;;;;5.68;1.85;;;25.60;92.90;;;;;;5083986;27;20043;-73
2023/08/22 13:04:49;;;;;;;8.95;2.08;;;25.40;92.80;;;;;;5101266;28;20406;-73
2023/08/22 13:07:35;;;;;;;8.70;1.98;;;25.40;93.10;;;;;;5083400;28;20044;-73
2023/08/22 13:10:21;;;;;;;4.95;1.65;;;25.60;93.30;;;;;;5098379;28;20039;-73
2023/08/22 13:13:07;;;;;;;5.57;2.53;;;25.80;92.50;;;;;;5093832;28;20100;-74
2023/08/22 13:15:53;;;;;;;4.90;1.80;;;25.90;92.80;;;;;;5111978;28;20667;-73
2023/08/22 13:18:39;;;;;;;5.20;1.80;;;26.00;92.50;;;;;;5096191;28;20043;-73
2023/08/22 13:21:25;;;;;;;4.80;2.00;;;26.00;91.80;;;;;;5068422;28;20043;-72
2023/08/22 13:24:11;;;;;;;6.72;2.35;;;25.70;91.40;;;;;;5098304;28;20103;-72
2023/08/22 13:26:57;;;;;;;7.53;2.00;;;26.00;91.80;;;;;;5083243;28;20047;-73
2023/08/22 13:29:43;;;;;;;4.68;2.17;;;26.20;92.20;;;;;;5083684;28;20048;-74
2023/08/22 13:32:29;;;;;;;5.80;1.83;;;26.40;91.80;;;;;;5110646;28;20051;-73
2023/08/22 13:35:16;;;;;;;5.13;1.73;;;26.40;91.20;;;;;;5049487;28;20532;-73
2023/08/22 13:38:02;;;;;;;9.55;2.00;;;26.20;91.30;;;;;;5070556;28;20075;-72
2023/08/22 13:40:47;;;;;;;9.07;1.70;;;26.30;91.90;;;;;;5089731;28;20044;-72
2023/08/22 13:43:34;;;;;;;4.25;1.42;;;26.40;90.80;;;;;;5076377;28;20050;-73
2023/08/22 13:46:20;;;;;;;6.88;1.08;;;26.50;86.80;;;;;;5077075;28;20101;-73
2023/08/22 13:49:07;;;;;;;5.10;0.90;;;26.50;85.30;;;;;;5089304;28;20177;-72
2023/08/22 13:51:53;;;;;;;3.03;1.17;;;26.80;82.80;;;;;;5086197;28;20059;-72
2023/08/22 13:54:39;;;;;;;4.35;1.00;;;26.90;81.70;;;;;;5101697;28;20036;-72
2023/08/22 13:57:28;;;;;;;3.53;1.10;;;26.80;82.80;;;;;;5077902;28;20047;-72
2023/08/22 14:00:15;;;;;;;4.38;1.17;;;27.00;83.50;;;;;;5072619;28;20348;-72
2023/08/22 14:03:01;;;;;;;4.57;0.90;;;27.20;84.20;;;;;;5064551;28;20043;-72
2023/08/22 14:05:47;;;;;;;4.47;1.00;;;27.00;83.10;;;;;;5085781;28;20043;-74
2023/08/22 14:08:33;;;;;;;3.78;1.10;;;27.00;84.60;;;;;;5091158;28;20039;-74
2023/08/22 14:11:19;;;;;;;3.45;0.90;;;26.90;83.80;;;;;;5073468;28;20068;-73
2023/08/22 14:14:05;;;;;;;2.20;0.90;;;26.80;83.80;;;;;;5072767;28;20824;-73
2023/08/22 14:16:51;;;;;;;4.65;0.98;;;26.70;84.30;;;;;;5077864;28;20122;-74
2023/08/22 14:19:37;;;;;;;5.10;1.60;;;26.50;84.50;;;;;;5085062;28;20429;-74
2023/08/22 14:22:23;;;;;;;2.63;1.10;;;26.50;85.50;;;;;;5086806;28;20039;-73
2023/08/22 14:25:09;;;;;;;5.63;0.80;;;26.40;86.20;;;;;;5101427;28;20116;-72
2023/08/22 14:27:55;;;;;;;3.58;1.08;;;26.30;83.50;;;;;;5079559;28;20039;-73
2023/08/22 14:30:41;;;;;;;4.80;1.00;;;26.40;82.80;;;;;;5095003;28;20483;-72
2023/08/22 14:33:27;;;;;;;4.07;1.05;;;26.60;83.20;;;;;;5090306;28;20036;-72
2023/08/22 14:36:13;;;;;;;4.35;1.10;;;26.90;83.30;;;;;;5077429;28;20067;-72
2023/08/22 14:38:59;;;;;;;2.85;1.00;;;26.60;84.10;;;;;;5060436;28;20079;-71
2023/08/22 14:41:45;;;;;;;3.53;1.17;;;26.40;83.60;;;;;;5063380;28;20123;-73
2023/08/22 14:44:31;;;;;;;2.00;1.00;;;26.30;83.70;;;;;;5093677;28;20043;-72
2023/08/22 14:47:17;;;;;;;1.80;0.90;;;26.00;83.30;;;;;;5093509;28;20133;-73
2023/08/22 14:50:04;;;;;;;7.35;1.10;;;26.00;83.50;;;;;;5094634;28;20043;-72